sensor_id;sensor_type;location;lat;lon;timestamp;P1;durP1;ratioP1;P2;durP2;ratioP2
20896;SDS011;10608;42.600;23.398;2022-10-22T00:01:09;41.07;;;39.37;;
20896;SDS011;10608;42.600;23.398;2022-10-22T00:03:35;27.97;;;26.83;;
20896;SDS011;10608;42.600;23.398;2022-10-22T00:06:00;25.50;;;24.47;;
20896;SDS011;10608;42.600;23.398;2022-10-22T00:08:26;22.30;;;21.40;;
20896;SDS011;10608;42.600;23.398;2022-10-22T00:10:52;18.17;;;17.47;;
20896;SDS011;10608;42.600;23.398;2022-10-22T00:13:17;16.97;;;16.27;;
20896;SDS011;10608;42.600;23.398;2022-10-22T00:15:43;16.53;;;15.87;;
20896;SDS011;10608;42.600;23.398;2022-10-22T00:18:08;22.50;;;21.60;;
20896;SDS011;10608;42.600;23.398;2022-10-22T00:20:34;42.83;;;41.10;;
20896;SDS011;10608;42.600;23.398;2022-10-22T00:22:59;27.67;;;26.57;;
20896;SDS011;10608;42.600;23.398;2022-10-22T00:25:25;26.77;;;25.67;;
20896;SDS011;10608;42.600;23.398;2022-10-22T00:27:50;28.03;;;26.93;;
20896;SDS011;10608;42.600;23.398;2022-10-22T00:30:16;26.00;;;24.97;;
20896;SDS011;10608;42.600;23.398;2022-10-22T00:32:41;25.80;;;24.77;;
20896;SDS011;10608;42.600;23.398;2022-10-22T00:35:07;21.83;;;20.97;;
20896;SDS011;10608;42.600;23.398;2022-10-22T00:37:32;22.47;;;21.57;;
20896;SDS011;10608;42.600;23.398;2022-10-22T00:39:58;23.23;;;22.33;;
20896;SDS011;10608;42.600;23.398;2022-10-22T00:42:24;27.03;;;25.93;;
20896;SDS011;10608;42.600;23.398;2022-10-22T00:50:19;24.47;;;23.47;;
20896;SDS011;10608;42.600;23.398;2022-10-22T00:52:48;25.53;;;24.53;;
20896;SDS011;10608;42.600;23.398;2022-10-22T00:55:15;21.97;;;21.07;;
20896;SDS011;10608;42.600;23.398;2022-10-22T00:57:42;19.77;;;18.97;;
20896;SDS011;10608;42.600;23.398;2022-10-22T01:00:08;20.83;;;20.00;;
20896;SDS011;10608;42.600;23.398;2022-10-22T01:02:34;20.47;;;19.67;;
20896;SDS011;10608;42.600;23.398;2022-10-22T01:05:00;24.63;;;23.63;;
20896;SDS011;10608;42.600;23.398;2022-10-22T01:07:26;18.13;;;17.43;;
20896;SDS011;10608;42.600;23.398;2022-10-22T01:18:05;34.07;;;32.60;;
20896;SDS011;10608;42.600;23.398;2022-10-22T01:26:19;27.07;;;25.97;;
20896;SDS011;10608;42.600;23.398;2022-10-22T01:29:06;23.97;;;23.00;;
20896;SDS011;10608;42.600;23.398;2022-10-22T01:31:42;22.03;;;21.13;;
20896;SDS011;10608;42.600;23.398;2022-10-22T01:34:13;23.93;;;23.00;;
20896;SDS011;10608;42.600;23.398;2022-10-22T01:36:41;24.70;;;23.70;;
20896;SDS011;10608;42.600;23.398;2022-10-22T01:39:07;27.40;;;26.30;;
20896;SDS011;10608;42.600;23.398;2022-10-22T01:41:34;28.60;;;27.50;;
20896;SDS011;10608;42.600;23.398;2022-10-22T01:44:00;23.00;;;22.10;;
20896;SDS011;10608;42.600;23.398;2022-10-22T01:46:26;15.60;;;15.00;;
20896;SDS011;10608;42.600;23.398;2022-10-22T01:48:57;18.63;;;17.87;;
20896;SDS011;10608;42.600;23.398;2022-10-22T01:51:43;19.37;;;18.60;;
20896;SDS011;10608;42.600;23.398;2022-10-22T01:57:35;14.90;;;14.30;;
20896;SDS011;10608;42.600;23.398;2022-10-22T02:00:11;15.80;;;15.20;;
20896;SDS011;10608;42.600;23.398;2022-10-22T02:08:03;20.33;;;19.53;;
20896;SDS011;10608;42.600;23.398;2022-10-22T02:10:33;23.80;;;22.83;;
20896;SDS011;10608;42.600;23.398;2022-10-22T02:13:07;28.00;;;26.87;;
20896;SDS011;10608;42.600;23.398;2022-10-22T02:15:36;26.70;;;25.63;;
20896;SDS011;10608;42.600;23.398;2022-10-22T02:18:04;26.20;;;25.17;;
20896;SDS011;10608;42.600;23.398;2022-10-22T02:20:32;23.50;;;22.60;;
20896;SDS011;10608;42.600;23.398;2022-10-22T02:23:00;26.57;;;25.47;;
20896;SDS011;10608;42.600;23.398;2022-10-22T02:25:28;37.20;;;35.70;;
20896;SDS011;10608;42.600;23.398;2022-10-22T02:30:40;44.40;;;42.57;;
20896;SDS011;10608;42.600;23.398;2022-10-22T02:33:18;53.83;;;51.63;;
20896;SDS011;10608;42.600;23.398;2022-10-22T02:35:47;44.40;;;42.53;;
20896;SDS011;10608;42.600;23.398;2022-10-22T02:38:15;33.60;;;32.27;;
20896;SDS011;10608;42.600;23.398;2022-10-22T02:40:42;53.33;;;51.13;;
20896;SDS011;10608;42.600;23.398;2022-10-22T02:43:07;64.97;;;62.17;;
20896;SDS011;10608;42.600;23.398;2022-10-22T02:45:33;53.27;;;51.07;;
20896;SDS011;10608;42.600;23.398;2022-10-22T02:47:59;32.27;;;30.97;;
20896;SDS011;10608;42.600;23.398;2022-10-22T02:50:25;34.70;;;33.30;;
20896;SDS011;10608;42.600;23.398;2022-10-22T02:52:50;30.63;;;29.43;;
20896;SDS011;10608;42.600;23.398;2022-10-22T02:55:16;23.03;;;22.13;;
20896;SDS011;10608;42.600;23.398;2022-10-22T02:57:41;24.07;;;23.10;;
20896;SDS011;10608;42.600;23.398;2022-10-22T03:00:07;22.37;;;21.47;;
20896;SDS011;10608;42.600;23.398;2022-10-22T03:02:34;21.70;;;20.80;;
20896;SDS011;10608;42.600;23.398;2022-10-22T03:04:59;22.20;;;21.30;;
20896;SDS011;10608;42.600;23.398;2022-10-22T03:07:25;25.70;;;24.70;;
20896;SDS011;10608;42.600;23.398;2022-10-22T03:09:50;27.23;;;26.13;;
20896;SDS011;10608;42.600;23.398;2022-10-22T03:12:16;26.03;;;25.00;;
20896;SDS011;10608;42.600;23.398;2022-10-22T03:14:41;25.30;;;24.30;;
20896;SDS011;10608;42.600;23.398;2022-10-22T03:17:07;28.63;;;27.47;;
20896;SDS011;10608;42.600;23.398;2022-10-22T03:19:32;29.93;;;28.73;;
20896;SDS011;10608;42.600;23.398;2022-10-22T03:21:59;28.20;;;27.07;;
20896;SDS011;10608;42.600;23.398;2022-10-22T03:24:29;25.90;;;24.87;;
20896;SDS011;10608;42.600;23.398;2022-10-22T03:26:58;23.67;;;22.73;;
20896;SDS011;10608;42.600;23.398;2022-10-22T03:29:24;23.27;;;22.33;;
20896;SDS011;10608;42.600;23.398;2022-10-22T03:31:52;20.23;;;19.43;;
20896;SDS011;10608;42.600;23.398;2022-10-22T03:34:18;22.40;;;21.50;;
20896;SDS011;10608;42.600;23.398;2022-10-22T03:36:44;22.67;;;21.77;;
20896;SDS011;10608;42.600;23.398;2022-10-22T03:39:13;23.37;;;22.43;;
20896;SDS011;10608;42.600;23.398;2022-10-22T03:41:42;25.23;;;24.23;;
20896;SDS011;10608;42.600;23.398;2022-10-22T03:44:08;23.13;;;22.20;;
20896;SDS011;10608;42.600;23.398;2022-10-22T03:46:34;21.13;;;20.30;;
20896;SDS011;10608;42.600;23.398;2022-10-22T03:49:00;24.07;;;23.07;;
20896;SDS011;10608;42.600;23.398;2022-10-22T03:51:26;24.40;;;23.40;;
20896;SDS011;10608;42.600;23.398;2022-10-22T03:53:52;25.17;;;24.17;;
20896;SDS011;10608;42.600;23.398;2022-10-22T03:56:18;26.33;;;25.27;;
20896;SDS011;10608;42.600;23.398;2022-10-22T03:58:43;25.67;;;24.63;;
20896;SDS011;10608;42.600;23.398;2022-10-22T04:01:09;27.63;;;26.50;;
20896;SDS011;10608;42.600;23.398;2022-10-22T04:03:37;25.63;;;24.60;;
20896;SDS011;10608;42.600;23.398;2022-10-22T04:06:04;25.87;;;24.83;;
20896;SDS011;10608;42.600;23.398;2022-10-22T04:08:31;22.43;;;21.53;;
20896;SDS011;10608;42.600;23.398;2022-10-22T04:10:57;33.13;;;31.80;;
20896;SDS011;10608;42.600;23.398;2022-10-22T04:13:22;26.10;;;25.07;;
20896;SDS011;10608;42.600;23.398;2022-10-22T04:15:48;28.63;;;27.50;;
20896;SDS011;10608;42.600;23.398;2022-10-22T04:18:15;27.67;;;26.57;;
20896;SDS011;10608;42.600;23.398;2022-10-22T04:20:44;22.60;;;21.70;;
20896;SDS011;10608;42.600;23.398;2022-10-22T04:23:10;24.23;;;23.27;;
20896;SDS011;10608;42.600;23.398;2022-10-22T04:25:36;20.93;;;20.13;;
20896;SDS011;10608;42.600;23.398;2022-10-22T04:28:01;23.57;;;22.67;;
20896;SDS011;10608;42.600;23.398;2022-10-22T04:30:26;25.57;;;24.57;;
20896;SDS011;10608;42.600;23.398;2022-10-22T04:32:52;33.47;;;31.97;;
20896;SDS011;10608;42.600;23.398;2022-10-22T04:35:17;29.50;;;28.30;;
20896;SDS011;10608;42.600;23.398;2022-10-22T04:37:43;26.93;;;25.83;;
20896;SDS011;10608;42.600;23.398;2022-10-22T04:40:08;26.03;;;25.03;;
20896;SDS011;10608;42.600;23.398;2022-10-22T04:42:34;22.83;;;21.93;;
20896;SDS011;10608;42.600;23.398;2022-10-22T04:45:00;30.23;;;29.03;;
20896;SDS011;10608;42.600;23.398;2022-10-22T04:47:25;26.87;;;25.77;;
20896;SDS011;10608;42.600;23.398;2022-10-22T04:49:51;27.87;;;26.77;;
20896;SDS011;10608;42.600;23.398;2022-10-22T04:52:16;30.47;;;29.20;;
20896;SDS011;10608;42.600;23.398;2022-10-22T04:54:41;32.40;;;31.10;;
20896;SDS011;10608;42.600;23.398;2022-10-22T04:57:07;30.97;;;29.73;;
20896;SDS011;10608;42.600;23.398;2022-10-22T04:59:32;35.47;;;34.07;;
20896;SDS011;10608;42.600;23.398;2022-10-22T05:01:58;34.60;;;33.20;;
20896;SDS011;10608;42.600;23.398;2022-10-22T05:04:23;36.83;;;35.33;;
20896;SDS011;10608;42.600;23.398;2022-10-22T05:06:49;38.90;;;37.30;;
20896;SDS011;10608;42.600;23.398;2022-10-22T05:09:18;38.30;;;36.70;;
20896;SDS011;10608;42.600;23.398;2022-10-22T05:11:45;30.33;;;28.90;;
20896;SDS011;10608;42.600;23.398;2022-10-22T05:14:15;26.63;;;25.53;;
20896;SDS011;10608;42.600;23.398;2022-10-22T05:16:43;24.00;;;23.03;;
20896;SDS011;10608;42.600;23.398;2022-10-22T05:19:13;26.13;;;25.10;;
20896;SDS011;10608;42.600;23.398;2022-10-22T05:21:48;24.70;;;23.70;;
20896;SDS011;10608;42.600;23.398;2022-10-22T05:24:14;29.23;;;28.07;;
20896;SDS011;10608;42.600;23.398;2022-10-22T05:26:40;29.43;;;28.23;;
20896;SDS011;10608;42.600;23.398;2022-10-22T05:29:05;29.47;;;28.27;;
20896;SDS011;10608;42.600;23.398;2022-10-22T05:31:31;30.97;;;29.73;;
20896;SDS011;10608;42.600;23.398;2022-10-22T05:33:56;40.90;;;39.20;;
20896;SDS011;10608;42.600;23.398;2022-10-22T05:36:22;33.93;;;32.53;;
20896;SDS011;10608;42.600;23.398;2022-10-22T05:38:48;29.63;;;28.43;;
20896;SDS011;10608;42.600;23.398;2022-10-22T05:41:23;23.00;;;22.10;;
20896;SDS011;10608;42.600;23.398;2022-10-22T05:43:50;20.47;;;19.67;;
20896;SDS011;10608;42.600;23.398;2022-10-22T05:46:20;22.87;;;21.97;;
20896;SDS011;10608;42.600;23.398;2022-10-22T05:48:54;24.73;;;23.73;;
20896;SDS011;10608;42.600;23.398;2022-10-22T05:51:21;20.10;;;19.30;;
20896;SDS011;10608;42.600;23.398;2022-10-22T05:53:50;23.53;;;22.60;;
20896;SDS011;10608;42.600;23.398;2022-10-22T05:56:16;25.00;;;24.00;;
20896;SDS011;10608;42.600;23.398;2022-10-22T05:58:42;36.73;;;35.13;;
20896;SDS011;10608;42.600;23.398;2022-10-22T06:01:13;29.50;;;28.30;;
20896;SDS011;10608;42.600;23.398;2022-10-22T06:03:47;31.17;;;29.87;;
20896;SDS011;10608;42.600;23.398;2022-10-22T06:08:48;38.17;;;36.60;;
20896;SDS011;10608;42.600;23.398;2022-10-22T06:11:16;32.53;;;31.20;;
20896;SDS011;10608;42.600;23.398;2022-10-22T06:13:44;31.17;;;29.87;;
20896;SDS011;10608;42.600;23.398;2022-10-22T06:16:10;25.93;;;24.83;;
20896;SDS011;10608;42.600;23.398;2022-10-22T06:18:35;55.47;;;53.17;;
20896;SDS011;10608;42.600;23.398;2022-10-22T06:21:05;66.90;;;64.07;;
20896;SDS011;10608;42.600;23.398;2022-10-22T06:23:31;37.47;;;35.87;;
20896;SDS011;10608;42.600;23.398;2022-10-22T06:25:57;32.33;;;31.00;;
20896;SDS011;10608;42.600;23.398;2022-10-22T06:28:23;34.47;;;33.03;;
20896;SDS011;10608;42.600;23.398;2022-10-22T06:30:48;31.70;;;30.40;;
20896;SDS011;10608;42.600;23.398;2022-10-22T06:33:14;48.07;;;46.10;;
20896;SDS011;10608;42.600;23.398;2022-10-22T06:35:39;35.60;;;34.17;;
20896;SDS011;10608;42.600;23.398;2022-10-22T06:38:05;60.10;;;57.60;;
20896;SDS011;10608;42.600;23.398;2022-10-22T06:40:31;37.23;;;35.63;;
20896;SDS011;10608;42.600;23.398;2022-10-22T06:43:00;44.93;;;43.13;;
20896;SDS011;10608;42.600;23.398;2022-10-22T06:45:25;44.93;;;43.13;;
20896;SDS011;10608;42.600;23.398;2022-10-22T06:47:51;21.17;;;20.27;;
20896;SDS011;10608;42.600;23.398;2022-10-22T06:50:17;25.40;;;24.37;;
20896;SDS011;10608;42.600;23.398;2022-10-22T06:52:43;30.03;;;28.83;;
20896;SDS011;10608;42.600;23.398;2022-10-22T06:55:09;20.43;;;19.60;;
20896;SDS011;10608;42.600;23.398;2022-10-22T06:57:34;19.87;;;19.03;;
20896;SDS011;10608;42.600;23.398;2022-10-22T07:00:00;30.00;;;28.77;;
20896;SDS011;10608;42.600;23.398;2022-10-22T07:02:25;49.83;;;47.80;;
20896;SDS011;10608;42.600;23.398;2022-10-22T07:04:51;23.33;;;22.40;;
20896;SDS011;10608;42.600;23.398;2022-10-22T07:07:16;32.20;;;30.90;;
20896;SDS011;10608;42.600;23.398;2022-10-22T07:09:42;24.10;;;23.10;;
20896;SDS011;10608;42.600;23.398;2022-10-22T07:12:10;24.03;;;22.97;;
20896;SDS011;10608;42.600;23.398;2022-10-22T07:14:36;25.87;;;24.77;;
20896;SDS011;10608;42.600;23.398;2022-10-22T07:17:02;34.60;;;33.20;;
20896;SDS011;10608;42.600;23.398;2022-10-22T07:19:27;25.67;;;24.60;;
20896;SDS011;10608;42.600;23.398;2022-10-22T07:21:53;21.80;;;20.90;;
20896;SDS011;10608;42.600;23.398;2022-10-22T07:24:18;19.23;;;18.43;;
20896;SDS011;10608;42.600;23.398;2022-10-22T07:26:44;17.60;;;16.90;;
20896;SDS011;10608;42.600;23.398;2022-10-22T07:29:09;21.93;;;21.03;;
20896;SDS011;10608;42.600;23.398;2022-10-22T07:31:35;31.37;;;30.10;;
20896;SDS011;10608;42.600;23.398;2022-10-22T07:34:00;19.00;;;18.20;;
20896;SDS011;10608;42.600;23.398;2022-10-22T07:36:26;22.77;;;21.77;;
20896;SDS011;10608;42.600;23.398;2022-10-22T07:38:55;18.13;;;17.33;;
20896;SDS011;10608;42.600;23.398;2022-10-22T07:41:22;21.57;;;20.63;;
20896;SDS011;10608;42.600;23.398;2022-10-22T07:43:48;32.37;;;30.97;;
20896;SDS011;10608;42.600;23.398;2022-10-22T07:46:13;52.00;;;49.87;;
20896;SDS011;10608;42.600;23.398;2022-10-22T07:48:39;23.50;;;22.57;;
20896;SDS011;10608;42.600;23.398;2022-10-22T07:51:05;14.50;;;13.90;;
20896;SDS011;10608;42.600;23.398;2022-10-22T07:53:30;27.23;;;26.10;;
20896;SDS011;10608;42.600;23.398;2022-10-22T07:55:56;38.63;;;36.73;;
20896;SDS011;10608;42.600;23.398;2022-10-22T07:58:22;26.37;;;25.27;;
20896;SDS011;10608;42.600;23.398;2022-10-22T08:00:48;25.93;;;24.83;;
20896;SDS011;10608;42.600;23.398;2022-10-22T08:03:15;78.73;;;74.80;;
20896;SDS011;10608;42.600;23.398;2022-10-22T08:05:42;70.53;;;67.30;;
20896;SDS011;10608;42.600;23.398;2022-10-22T08:08:09;65.57;;;62.50;;
20896;SDS011;10608;42.600;23.398;2022-10-22T08:10:35;113.70;;;101.57;;
20896;SDS011;10608;42.600;23.398;2022-10-22T08:13:01;30.23;;;28.83;;
20896;SDS011;10608;42.600;23.398;2022-10-22T08:15:26;39.30;;;37.67;;
20896;SDS011;10608;42.600;23.398;2022-10-22T08:17:52;77.30;;;74.13;;
20896;SDS011;10608;42.600;23.398;2022-10-22T08:20:17;153.80;;;147.70;;
20896;SDS011;10608;42.600;23.398;2022-10-22T08:22:43;110.83;;;105.67;;
20896;SDS011;10608;42.600;23.398;2022-10-22T08:25:23;105.70;;;97.70;;
20896;SDS011;10608;42.600;23.398;2022-10-22T08:27:49;26.63;;;25.33;;
20896;SDS011;10608;42.600;23.398;2022-10-22T08:30:14;25.80;;;24.60;;
20896;SDS011;10608;42.600;23.398;2022-10-22T08:32:40;37.47;;;35.70;;
20896;SDS011;10608;42.600;23.398;2022-10-22T08:35:05;106.43;;;102.07;;
20896;SDS011;10608;42.600;23.398;2022-10-22T08:37:31;131.40;;;126.17;;
20896;SDS011;10608;42.600;23.398;2022-10-22T08:39:57;139.73;;;133.93;;
20896;SDS011;10608;42.600;23.398;2022-10-22T08:45:00;47.90;;;45.93;;
20896;SDS011;10608;42.600;23.398;2022-10-22T08:50:29;21.23;;;20.27;;
20896;SDS011;10608;42.600;23.398;2022-10-22T08:53:11;18.00;;;16.97;;
20896;SDS011;10608;42.600;23.398;2022-10-22T08:55:39;14.13;;;13.53;;
20896;SDS011;10608;42.600;23.398;2022-10-22T08:58:09;30.73;;;29.50;;
20896;SDS011;10608;42.600;23.398;2022-10-22T09:00:50;24.57;;;23.40;;
20896;SDS011;10608;42.600;23.398;2022-10-22T09:03:39;43.50;;;41.57;;
20896;SDS011;10608;42.600;23.398;2022-10-22T09:08:55;13.10;;;12.47;;
20896;SDS011;10608;42.600;23.398;2022-10-22T09:13:54;18.30;;;17.57;;
20896;SDS011;10608;42.600;23.398;2022-10-22T09:24:47;21.20;;;19.83;;
20896;SDS011;10608;42.600;23.398;2022-10-22T09:27:25;14.90;;;14.20;;
20896;SDS011;10608;42.600;23.398;2022-10-22T09:29:52;53.77;;;51.53;;
20896;SDS011;10608;42.600;23.398;2022-10-22T09:32:18;20.67;;;19.80;;
20896;SDS011;10608;42.600;23.398;2022-10-22T09:34:44;32.70;;;31.33;;
20896;SDS011;10608;42.600;23.398;2022-10-22T09:37:11;14.03;;;13.43;;
20896;SDS011;10608;42.600;23.398;2022-10-22T09:39:45;169.73;;;162.93;;
20896;SDS011;10608;42.600;23.398;2022-10-22T09:42:15;50.13;;;48.07;;
20896;SDS011;10608;42.600;23.398;2022-10-22T09:44:43;81.90;;;78.53;;
20896;SDS011;10608;42.600;23.398;2022-10-22T09:51:14;20.43;;;19.63;;
20896;SDS011;10608;42.600;23.398;2022-10-22T09:53:49;29.60;;;28.13;;
20896;SDS011;10608;42.600;23.398;2022-10-22T09:56:25;85.47;;;81.67;;
20896;SDS011;10608;42.600;23.398;2022-10-22T09:58:56;43.63;;;41.83;;
20896;SDS011;10608;42.600;23.398;2022-10-22T10:01:31;138.43;;;132.97;;
20896;SDS011;10608;42.600;23.398;2022-10-22T10:04:04;23.33;;;22.37;;
20896;SDS011;10608;42.600;23.398;2022-10-22T10:06:33;37.97;;;36.40;;
20896;SDS011;10608;42.600;23.398;2022-10-22T10:08:59;72.90;;;69.93;;
20896;SDS011;10608;42.600;23.398;2022-10-22T10:11:47;54.10;;;51.80;;
20896;SDS011;10608;42.600;23.398;2022-10-22T10:16:59;28.23;;;27.07;;
20896;SDS011;10608;42.600;23.398;2022-10-22T10:27:40;198.43;;;190.53;;
20896;SDS011;10608;42.600;23.398;2022-10-22T10:30:15;173.50;;;166.67;;
20896;SDS011;10608;42.600;23.398;2022-10-22T10:35:38;138.40;;;132.87;;
20896;SDS011;10608;42.600;23.398;2022-10-22T10:43:50;35.07;;;33.57;;
20896;SDS011;10608;42.600;23.398;2022-10-22T10:49:19;23.00;;;22.00;;
20896;SDS011;10608;42.600;23.398;2022-10-22T11:07:54;216.17;;;207.77;;
20896;SDS011;10608;42.600;23.398;2022-10-22T11:13:17;211.50;;;203.30;;
20896;SDS011;10608;42.600;23.398;2022-10-22T11:15:55;197.07;;;189.37;;
20896;SDS011;10608;42.600;23.398;2022-10-22T11:18:31;195.33;;;187.73;;
20896;SDS011;10608;42.600;23.398;2022-10-22T11:23:41;121.93;;;117.03;;
20896;SDS011;10608;42.600;23.398;2022-10-22T11:26:31;150.30;;;144.30;;
20896;SDS011;10608;42.600;23.398;2022-10-22T11:29:02;108.93;;;104.57;;
20896;SDS011;10608;42.600;23.398;2022-10-22T11:31:34;50.23;;;48.03;;
20896;SDS011;10608;42.600;23.398;2022-10-22T11:36:52;46.77;;;44.87;;
20896;SDS011;10608;42.600;23.398;2022-10-22T11:39:27;47.30;;;45.33;;
20896;SDS011;10608;42.600;23.398;2022-10-22T11:42:21;22.40;;;21.47;;
20896;SDS011;10608;42.600;23.398;2022-10-22T11:47:28;57.80;;;55.43;;
20896;SDS011;10608;42.600;23.398;2022-10-22T11:49:59;26.47;;;25.37;;
20896;SDS011;10608;42.600;23.398;2022-10-22T11:52:48;17.37;;;16.67;;
20896;SDS011;10608;42.600;23.398;2022-10-22T11:58:25;20.73;;;19.90;;
20896;SDS011;10608;42.600;23.398;2022-10-22T12:08:45;69.47;;;66.67;;
20896;SDS011;10608;42.600;23.398;2022-10-22T12:16:24;46.23;;;44.33;;
20896;SDS011;10608;42.600;23.398;2022-10-22T12:18:54;42.90;;;41.10;;
20896;SDS011;10608;42.600;23.398;2022-10-22T12:21:25;60.37;;;57.80;;
20896;SDS011;10608;42.600;23.398;2022-10-22T12:23:51;62.80;;;60.20;;
20896;SDS011;10608;42.600;23.398;2022-10-22T12:26:23;56.10;;;53.80;;
20896;SDS011;10608;42.600;23.398;2022-10-22T12:28:57;69.03;;;66.20;;
20896;SDS011;10608;42.600;23.398;2022-10-22T12:31:23;73.87;;;70.90;;
20896;SDS011;10608;42.600;23.398;2022-10-22T12:33:59;53.77;;;51.53;;
20896;SDS011;10608;42.600;23.398;2022-10-22T12:36:25;66.30;;;63.50;;
20896;SDS011;10608;42.600;23.398;2022-10-22T12:38:52;41.50;;;39.67;;
20896;SDS011;10608;42.600;23.398;2022-10-22T12:41:17;29.67;;;28.47;;
20896;SDS011;10608;42.600;23.398;2022-10-22T12:43:44;40.33;;;38.70;;
20896;SDS011;10608;42.600;23.398;2022-10-22T12:46:10;22.80;;;21.87;;
20896;SDS011;10608;42.600;23.398;2022-10-22T12:48:47;39.90;;;38.23;;
20896;SDS011;10608;42.600;23.398;2022-10-22T12:51:15;34.20;;;32.77;;
20896;SDS011;10608;42.600;23.398;2022-10-22T12:53:51;31.00;;;29.70;;
20896;SDS011;10608;42.600;23.398;2022-10-22T12:56:22;61.83;;;59.33;;
20896;SDS011;10608;42.600;23.398;2022-10-22T12:58:51;42.17;;;40.40;;
20896;SDS011;10608;42.600;23.398;2022-10-22T13:01:20;27.30;;;26.20;;
20896;SDS011;10608;42.600;23.398;2022-10-22T13:03:47;30.40;;;29.13;;
20896;SDS011;10608;42.600;23.398;2022-10-22T13:08:43;45.10;;;43.20;;
20896;SDS011;10608;42.600;23.398;2022-10-22T13:11:30;55.43;;;53.13;;
20896;SDS011;10608;42.600;23.398;2022-10-22T13:14:01;58.50;;;55.83;;
20896;SDS011;10608;42.600;23.398;2022-10-22T13:16:39;39.07;;;37.37;;
20896;SDS011;10608;42.600;23.398;2022-10-22T13:19:05;20.77;;;19.87;;
20896;SDS011;10608;42.600;23.398;2022-10-22T13:21:50;33.27;;;31.87;;
20896;SDS011;10608;42.600;23.398;2022-10-22T13:24:18;29.37;;;28.17;;
20896;SDS011;10608;42.600;23.398;2022-10-22T13:26:50;24.60;;;23.57;;
20896;SDS011;10608;42.600;23.398;2022-10-22T13:29:18;27.63;;;26.53;;
20896;SDS011;10608;42.600;23.398;2022-10-22T13:31:46;37.03;;;35.53;;
20896;SDS011;10608;42.600;23.398;2022-10-22T13:34:18;44.33;;;42.47;;
20896;SDS011;10608;42.600;23.398;2022-10-22T13:36:46;38.33;;;36.73;;
20896;SDS011;10608;42.600;23.398;2022-10-22T13:39:15;42.43;;;40.73;;
20896;SDS011;10608;42.600;23.398;2022-10-22T13:41:42;36.90;;;35.40;;
20896;SDS011;10608;42.600;23.398;2022-10-22T13:44:07;29.50;;;28.30;;
20896;SDS011;10608;42.600;23.398;2022-10-22T13:46:33;21.10;;;20.23;;
20896;SDS011;10608;42.600;23.398;2022-10-22T13:49:04;25.13;;;24.10;;
20896;SDS011;10608;42.600;23.398;2022-10-22T13:51:33;28.10;;;26.70;;
20896;SDS011;10608;42.600;23.398;2022-10-22T13:53:59;29.80;;;28.50;;
20896;SDS011;10608;42.600;23.398;2022-10-22T13:56:25;30.80;;;29.50;;
20896;SDS011;10608;42.600;23.398;2022-10-22T13:58:51;29.57;;;28.37;;
20896;SDS011;10608;42.600;23.398;2022-10-22T14:03:47;25.17;;;24.17;;
20896;SDS011;10608;42.600;23.398;2022-10-22T14:06:15;28.17;;;27.00;;
20896;SDS011;10608;42.600;23.398;2022-10-22T14:08:42;27.73;;;26.57;;
20896;SDS011;10608;42.600;23.398;2022-10-22T14:11:10;43.60;;;41.80;;
20896;SDS011;10608;42.600;23.398;2022-10-22T14:13:37;17.43;;;16.73;;
20896;SDS011;10608;42.600;23.398;2022-10-22T14:16:03;29.10;;;27.90;;
20896;SDS011;10608;42.600;23.398;2022-10-22T14:18:30;15.73;;;15.13;;
20896;SDS011;10608;42.600;23.398;2022-10-22T14:21:00;16.97;;;16.27;;
20896;SDS011;10608;42.600;23.398;2022-10-22T14:23:32;18.83;;;18.03;;
20896;SDS011;10608;42.600;23.398;2022-10-22T14:26:00;16.20;;;15.50;;
20896;SDS011;10608;42.600;23.398;2022-10-22T14:28:25;23.13;;;22.17;;
20896;SDS011;10608;42.600;23.398;2022-10-22T14:30:51;37.77;;;36.17;;
20896;SDS011;10608;42.600;23.398;2022-10-22T14:33:27;30.63;;;29.33;;
20896;SDS011;10608;42.600;23.398;2022-10-22T14:35:55;26.60;;;25.50;;
20896;SDS011;10608;42.600;23.398;2022-10-22T14:38:21;25.23;;;24.03;;
20896;SDS011;10608;42.600;23.398;2022-10-22T14:40:47;27.80;;;25.67;;
20896;SDS011;10608;42.600;23.398;2022-10-22T14:43:17;25.17;;;24.07;;
20896;SDS011;10608;42.600;23.398;2022-10-22T14:45:46;20.67;;;19.87;;
20896;SDS011;10608;42.600;23.398;2022-10-22T14:48:11;18.50;;;17.77;;
20896;SDS011;10608;42.600;23.398;2022-10-22T14:50:37;23.77;;;22.80;;
20896;SDS011;10608;42.600;23.398;2022-10-22T14:53:02;35.60;;;34.10;;
20896;SDS011;10608;42.600;23.398;2022-10-22T14:55:28;34.03;;;32.67;;
20896;SDS011;10608;42.600;23.398;2022-10-22T14:57:53;35.73;;;34.23;;
20896;SDS011;10608;42.600;23.398;2022-10-22T15:00:19;29.63;;;28.43;;
20896;SDS011;10608;42.600;23.398;2022-10-22T15:02:45;32.73;;;31.37;;
20896;SDS011;10608;42.600;23.398;2022-10-22T15:05:11;33.10;;;31.60;;
20896;SDS011;10608;42.600;23.398;2022-10-22T15:07:37;20.97;;;20.17;;
20896;SDS011;10608;42.600;23.398;2022-10-22T15:10:03;24.07;;;23.07;;
20896;SDS011;10608;42.600;23.398;2022-10-22T15:12:30;48.77;;;46.60;;
20896;SDS011;10608;42.600;23.398;2022-10-22T15:14:55;32.77;;;31.40;;
20896;SDS011;10608;42.600;23.398;2022-10-22T15:17:21;43.93;;;42.10;;
20896;SDS011;10608;42.600;23.398;2022-10-22T15:19:46;132.80;;;127.50;;
20896;SDS011;10608;42.600;23.398;2022-10-22T15:22:12;121.00;;;116.10;;
20896;SDS011;10608;42.600;23.398;2022-10-22T15:24:38;114.40;;;109.80;;
20896;SDS011;10608;42.600;23.398;2022-10-22T15:27:04;108.80;;;104.40;;
20896;SDS011;10608;42.600;23.398;2022-10-22T15:29:30;43.80;;;41.90;;
20896;SDS011;10608;42.600;23.398;2022-10-22T15:31:59;23.80;;;22.80;;
20896;SDS011;10608;42.600;23.398;2022-10-22T15:34:28;30.50;;;29.23;;
20896;SDS011;10608;42.600;23.398;2022-10-22T15:36:56;144.73;;;138.97;;
20896;SDS011;10608;42.600;23.398;2022-10-22T15:39:23;230.07;;;221.00;;
20896;SDS011;10608;42.600;23.398;2022-10-22T15:41:49;266.57;;;256.17;;
20896;SDS011;10608;42.600;23.398;2022-10-22T15:44:16;167.17;;;160.40;;
20896;SDS011;10608;42.600;23.398;2022-10-22T15:46:45;87.83;;;84.20;;
20896;SDS011;10608;42.600;23.398;2022-10-22T15:49:10;19.03;;;18.27;;
20896;SDS011;10608;42.600;23.398;2022-10-22T15:51:36;26.27;;;25.17;;
20896;SDS011;10608;42.600;23.398;2022-10-22T15:54:02;36.20;;;34.70;;
20896;SDS011;10608;42.600;23.398;2022-10-22T15:56:28;39.43;;;37.83;;
20896;SDS011;10608;42.600;23.398;2022-10-22T15:58:58;33.23;;;31.83;;
20896;SDS011;10608;42.600;23.398;2022-10-22T16:01:25;18.50;;;17.70;;
20896;SDS011;10608;42.600;23.398;2022-10-22T16:03:51;20.10;;;19.30;;
20896;SDS011;10608;42.600;23.398;2022-10-22T16:06:27;24.90;;;23.90;;
20896;SDS011;10608;42.600;23.398;2022-10-22T16:08:58;23.70;;;22.70;;
20896;SDS011;10608;42.600;23.398;2022-10-22T16:11:25;50.67;;;48.50;;
20896;SDS011;10608;42.600;23.398;2022-10-22T16:13:51;45.80;;;43.87;;
20896;SDS011;10608;42.600;23.398;2022-10-22T16:16:19;34.17;;;32.77;;
20896;SDS011;10608;42.600;23.398;2022-10-22T16:18:45;25.50;;;24.47;;